sensor_id;sensor_type;location;lat;lon;timestamp;pressure;altitude;pressure_sealevel;temperature;humidity
55263;BME280;41125;48.752;9.168;2023-03-18T00:00:17;96385.03;;;11.14;46.43
55263;BME280;41125;48.752;9.168;2023-03-18T00:00:49;96378.00;;;11.13;46.21
55263;BME280;41125;48.752;9.168;2023-03-18T00:01:20;96386.97;;;11.14;46.37
55263;BME280;41125;48.752;9.168;2023-03-18T00:01:51;96384.56;;;11.12;46.37
55263;BME280;41125;48.752;9.168;2023-03-18T00:02:23;96381.84;;;11.12;46.45
55263;BME280;41125;48.752;9.168;2023-03-18T00:02:55;96380.22;;;11.11;46.64
55263;BME280;41125;48.752;9.168;2023-03-18T00:03:26;96381.34;;;11.10;46.74
55263;BME280;41125;48.752;9.168;2023-03-18T00:03:58;96387.87;;;11.09;46.28
55263;BME280;41125;48.752;9.168;2023-03-18T00:04:31;96385.16;;;11.09;46.35
55263;BME280;41125;48.752;9.168;2023-03-18T00:05:03;96383.59;;;11.08;46.59
55263;BME280;41125;48.752;9.168;2023-03-18T00:05:35;96388.22;;;11.07;46.53
55263;BME280;41125;48.752;9.168;2023-03-18T00:06:12;96378.47;;;11.06;46.65
55263;BME280;41125;48.752;9.168;2023-03-18T00:06:44;96385.81;;;11.06;46.66
55263;BME280;41125;48.752;9.168;2023-03-18T00:07:16;96378.78;;;11.05;46.63
55263;BME280;41125;48.752;9.168;2023-03-18T00:07:47;96384.19;;;11.05;46.80
55263;BME280;41125;48.752;9.168;2023-03-18T00:08:20;96385.31;;;11.04;46.77
55263;BME280;41125;48.752;9.168;2023-03-18T00:08:52;96385.31;;;11.04;46.93
55263;BME280;41125;48.752;9.168;2023-03-18T00:09:23;96382.59;;;11.04;46.63
55263;BME280;41125;48.752;9.168;2023-03-18T00:09:54;96384.81;;;11.02;46.78
55263;BME280;41125;48.752;9.168;2023-03-18T00:10:27;96380.50;;;11.01;46.58
55263;BME280;41125;48.752;9.168;2023-03-18T00:10:58;96378.88;;;11.00;47.01
55263;BME280;41125;48.752;9.168;2023-03-18T00:11:32;96384.62;;;10.98;46.75
55263;BME280;41125;48.752;9.168;2023-03-18T00:12:04;96383.81;;;10.98;47.09
55263;BME280;41125;48.752;9.168;2023-03-18T00:12:38;96383.31;;;10.96;46.83
55263;BME280;41125;48.752;9.168;2023-03-18T00:13:10;96381.72;;;10.95;47.23
55263;BME280;41125;48.752;9.168;2023-03-18T00:13:42;96380.13;;;10.94;47.03
55263;BME280;41125;48.752;9.168;2023-03-18T00:14:13;96379.63;;;10.92;47.39
55263;BME280;41125;48.752;9.168;2023-03-18T00:14:45;96379.91;;;10.90;47.33
55263;BME280;41125;48.752;9.168;2023-03-18T00:15:17;96377.22;;;10.90;47.17
55263;BME280;41125;48.752;9.168;2023-03-18T00:15:50;96379.13;;;10.90;46.90
55263;BME280;41125;48.752;9.168;2023-03-18T00:16:22;96378.31;;;10.89;47.03
55263;BME280;41125;48.752;9.168;2023-03-18T00:16:57;96382.94;;;10.89;47.16
55263;BME280;41125;48.752;9.168;2023-03-18T00:17:28;96376.72;;;10.88;47.36
55263;BME280;41125;48.752;9.168;2023-03-18T00:18:00;96377.81;;;10.87;47.54
55263;BME280;41125;48.752;9.168;2023-03-18T00:18:32;96379.72;;;10.87;47.16
55263;BME280;41125;48.752;9.168;2023-03-18T00:19:04;96372.69;;;10.86;47.42
55263;BME280;41125;48.752;9.168;2023-03-18T00:19:36;96379.72;;;10.87;47.54
55263;BME280;41125;48.752;9.168;2023-03-18T00:20:10;96374.00;;;10.88;46.72
55263;BME280;41125;48.752;9.168;2023-03-18T00:20:43;96377.50;;;10.89;46.59
55263;BME280;41125;48.752;9.168;2023-03-18T00:21:18;96375.91;;;10.88;46.81
55263;BME280;41125;48.752;9.168;2023-03-18T00:21:51;96380.53;;;10.87;47.02
55263;BME280;41125;48.752;9.168;2023-03-18T00:22:22;96378.94;;;10.86;47.02
55263;BME280;41125;48.752;9.168;2023-03-18T00:22:57;96376.53;;;10.85;47.28
55263;BME280;41125;48.752;9.168;2023-03-18T00:23:31;96378.72;;;10.83;46.97
55263;BME280;41125;48.752;9.168;2023-03-18T00:24:03;96377.94;;;10.82;46.97
55263;BME280;41125;48.752;9.168;2023-03-18T00:24:35;96382.56;;;10.82;46.95
55263;BME280;41125;48.752;9.168;2023-03-18T00:25:09;96380.94;;;10.81;46.86
55263;BME280;41125;48.752;9.168;2023-03-18T00:25:42;96386.38;;;10.81;47.42
55263;BME280;41125;48.752;9.168;2023-03-18T00:26:16;96384.78;;;10.80;47.23
55263;BME280;41125;48.752;9.168;2023-03-18T00:26:51;96383.16;;;10.79;47.24
55263;BME280;41125;48.752;9.168;2023-03-18T00:27:22;96380.44;;;10.79;47.45
55263;BME280;41125;48.752;9.168;2023-03-18T00:27:53;96383.16;;;10.79;47.48
55263;BME280;41125;48.752;9.168;2023-03-18T00:28:26;96383.97;;;10.79;47.14
55263;BME280;41125;48.752;9.168;2023-03-18T00:29:01;96387.00;;;10.78;47.50
55263;BME280;41125;48.752;9.168;2023-03-18T00:29:32;96387.78;;;10.78;47.22
55263;BME280;41125;48.752;9.168;2023-03-18T00:30:06;96397.84;;;10.78;47.41
55263;BME280;41125;48.752;9.168;2023-03-18T00:30:38;96387.28;;;10.76;47.24
55263;BME280;41125;48.752;9.168;2023-03-18T00:31:12;96400.06;;;10.75;47.56
55263;BME280;41125;48.752;9.168;2023-03-18T00:31:47;96402.78;;;10.75;47.71
55263;BME280;41125;48.752;9.168;2023-03-18T00:32:18;96400.38;;;10.74;47.88
55263;BME280;41125;48.752;9.168;2023-03-18T00:32:50;96403.87;;;10.74;47.72
55263;BME280;41125;48.752;9.168;2023-03-18T00:33:21;96405.00;;;10.73;47.81
55263;BME280;41125;48.752;9.168;2023-03-18T00:34:01;96407.72;;;10.73;47.64
55263;BME280;41125;48.752;9.168;2023-03-18T00:34:33;96400.19;;;10.70;47.73
55263;BME280;41125;48.752;9.168;2023-03-18T00:35:05;96402.09;;;10.70;47.93
55263;BME280;41125;48.752;9.168;2023-03-18T00:35:37;96401.91;;;10.66;47.96
55263;BME280;41125;48.752;9.168;2023-03-18T00:36:09;96399.19;;;10.66;47.57
55263;BME280;41125;48.752;9.168;2023-03-18T00:36:43;96401.41;;;10.64;48.17
55263;BME280;41125;48.752;9.168;2023-03-18T00:37:15;96404.94;;;10.65;47.81
55263;BME280;41125;48.752;9.168;2023-03-18T00:37:57;96402.50;;;10.63;48.22
55263;BME280;41125;48.752;9.168;2023-03-18T00:38:30;96409.56;;;10.64;48.33
55263;BME280;41125;48.752;9.168;2023-03-18T00:39:02;96404.94;;;10.65;48.29
55263;BME280;41125;48.752;9.168;2023-03-18T00:39:34;96407.94;;;10.63;48.00
55263;BME280;41125;48.752;9.168;2023-03-18T00:40:11;96410.97;;;10.62;48.16
55263;BME280;41125;48.752;9.168;2023-03-18T00:40:49;96412.88;;;10.61;47.93
55263;BME280;41125;48.752;9.168;2023-03-18T00:41:28;96406.94;;;10.59;48.34
55263;BME280;41125;48.752;9.168;2023-03-18T00:42:00;96403.44;;;10.59;48.03
55263;BME280;41125;48.752;9.168;2023-03-18T00:42:40;96402.94;;;10.57;48.17
55263;BME280;41125;48.752;9.168;2023-03-18T00:43:23;96407.53;;;10.56;48.46
55263;BME280;41125;48.752;9.168;2023-03-18T00:43:59;96417.28;;;10.57;48.23
55263;BME280;41125;48.752;9.168;2023-03-18T00:44:31;96409.97;;;10.58;48.49
55263;BME280;41125;48.752;9.168;2023-03-18T00:45:04;96411.87;;;10.57;48.46
55263;BME280;41125;48.752;9.168;2023-03-18T00:45:37;96422.72;;;10.57;48.33
55263;BME280;41125;48.752;9.168;2023-03-18T00:46:09;96412.97;;;10.56;48.57
55263;BME280;41125;48.752;9.168;2023-03-18T00:46:41;96414.09;;;10.55;48.18
55263;BME280;41125;48.752;9.168;2023-03-18T00:47:13;96421.63;;;10.58;48.14
55263;BME280;41125;48.752;9.168;2023-03-18T00:47:44;96417.78;;;10.59;48.19
55263;BME280;41125;48.752;9.168;2023-03-18T00:48:18;96411.87;;;10.57;48.15
55263;BME280;41125;48.752;9.168;2023-03-18T00:48:51;96416.50;;;10.57;48.23
55263;BME280;41125;48.752;9.168;2023-03-18T00:49:23;96411.37;;;10.55;48.13
55263;BME280;41125;48.752;9.168;2023-03-18T00:49:55;96413.78;;;10.57;48.17
55263;BME280;41125;48.752;9.168;2023-03-18T00:50:27;96415.69;;;10.56;48.70
55263;BME280;41125;48.752;9.168;2023-03-18T00:51:11;96416.78;;;10.55;48.04
55263;BME280;41125;48.752;9.168;2023-03-18T00:51:47;96416.28;;;10.53;48.59
55263;BME280;41125;48.752;9.168;2023-03-18T00:52:18;96411.97;;;10.52;48.38
55263;BME280;41125;48.752;9.168;2023-03-18T00:52:49;96415.78;;;10.51;48.24
55263;BME280;41125;48.752;9.168;2023-03-18T00:53:20;96414.19;;;10.50;48.36
55263;BME280;41125;48.752;9.168;2023-03-18T00:53:56;96417.19;;;10.49;48.88
55263;BME280;41125;48.752;9.168;2023-03-18T00:54:28;96418.00;;;10.49;48.80
55263;BME280;41125;48.752;9.168;2023-03-18T00:55:00;96420.22;;;10.47;48.58
55263;BME280;41125;48.752;9.168;2023-03-18T00:55:31;96411.56;;;10.45;48.60
55263;BME280;41125;48.752;9.168;2023-03-18T00:56:04;96417.81;;;10.46;48.92
55263;BME280;41125;48.752;9.168;2023-03-18T00:56:36;96417.00;;;10.45;48.63
55263;BME280;41125;48.752;9.168;2023-03-18T00:57:08;96417.00;;;10.45;48.80
55263;BME280;41125;48.752;9.168;2023-03-18T00:57:40;96422.72;;;10.44;48.66
55263;BME280;41125;48.752;9.168;2023-03-18T00:58:12;96418.09;;;10.44;48.85
55263;BME280;41125;48.752;9.168;2023-03-18T00:58:45;96420.81;;;10.44;48.73
55263;BME280;41125;48.752;9.168;2023-03-18T00:59:17;96415.41;;;10.44;48.84
55263;BME280;41125;48.752;9.168;2023-03-18T00:59:49;96419.72;;;10.45;48.74
55263;BME280;41125;48.752;9.168;2023-03-18T01:00:22;96419.72;;;10.45;48.68
55263;BME280;41125;48.752;9.168;2023-03-18T01:00:56;96424.03;;;10.46;48.49
55263;BME280;41125;48.752;9.168;2023-03-18T01:01:27;96425.63;;;10.47;48.90
55263;BME280;41125;48.752;9.168;2023-03-18T01:01:59;96424.03;;;10.46;48.81
55263;BME280;41125;48.752;9.168;2023-03-18T01:02:30;96428.34;;;10.47;48.58
55263;BME280;41125;48.752;9.168;2023-03-18T01:03:02;96430.25;;;10.47;48.69
55263;BME280;41125;48.752;9.168;2023-03-18T01:03:36;96419.41;;;10.47;48.78
55263;BME280;41125;48.752;9.168;2023-03-18T01:04:09;96429.47;;;10.46;48.77
55263;BME280;41125;48.752;9.168;2023-03-18T01:04:41;96419.72;;;10.45;48.72
55263;BME280;41125;48.752;9.168;2023-03-18T01:05:14;96426.25;;;10.44;48.64
55263;BME280;41125;48.752;9.168;2023-03-18T01:05:46;96426.25;;;10.44;48.89
55263;BME280;41125;48.752;9.168;2023-03-18T01:06:23;96416.50;;;10.43;48.58
55263;BME280;41125;48.752;9.168;2023-03-18T01:06:55;96420.31;;;10.42;49.06
55263;BME280;41125;48.752;9.168;2023-03-18T01:07:27;96420.31;;;10.42;48.86
55263;BME280;41125;48.752;9.168;2023-03-18T01:07:59;96412.19;;;10.42;48.69
55263;BME280;41125;48.752;9.168;2023-03-18T01:08:30;96421.41;;;10.41;48.67
55263;BME280;41125;48.752;9.168;2023-03-18T01:09:03;96416.00;;;10.41;48.84
55263;BME280;41125;48.752;9.168;2023-03-18T01:09:36;96415.19;;;10.40;49.01
55263;BME280;41125;48.752;9.168;2023-03-18T01:10:12;96417.59;;;10.42;48.75
55263;BME280;41125;48.752;9.168;2023-03-18T01:10:44;96418.72;;;10.41;48.67
55263;BME280;41125;48.752;9.168;2023-03-18T01:11:17;96419.81;;;10.40;48.51
55263;BME280;41125;48.752;9.168;2023-03-18T01:11:48;96419.03;;;10.39;48.56
55263;BME280;41125;48.752;9.168;2023-03-18T01:12:20;96426.84;;;10.41;48.83
55263;BME280;41125;48.752;9.168;2023-03-18T01:12:53;96415.19;;;10.40;48.45
55263;BME280;41125;48.752;9.168;2023-03-18T01:13:24;96420.63;;;10.40;49.02
55263;BME280;41125;48.752;9.168;2023-03-18T01:13:56;96421.41;;;10.41;48.86
55263;BME280;41125;48.752;9.168;2023-03-18T01:14:29;96431.47;;;10.40;48.79
55263;BME280;41125;48.752;9.168;2023-03-18T01:15:02;96425.25;;;10.40;48.72
55263;BME280;41125;48.752;9.168;2023-03-18T01:15:35;96435.31;;;10.39;49.06
55263;BME280;41125;48.752;9.168;2023-03-18T01:16:08;96425.25;;;10.40;48.55
55263;BME280;41125;48.752;9.168;2023-03-18T01:16:41;96429.56;;;10.41;48.75
55263;BME280;41125;48.752;9.168;2023-03-18T01:17:12;96426.03;;;10.40;48.52
55263;BME280;41125;48.752;9.168;2023-03-18T01:17:44;96432.28;;;10.41;48.55
55263;BME280;41125;48.752;9.168;2023-03-18T01:18:18;96427.84;;;10.45;48.60
55263;BME280;41125;48.752;9.168;2023-03-18T01:18:52;96423.44;;;10.49;47.96
55263;BME280;41125;48.752;9.168;2023-03-18T01:19:24;96421.22;;;10.51;48.29
55263;BME280;41125;48.752;9.168;2023-03-18T01:19:56;96419.81;;;10.54;47.99
55263;BME280;41125;48.752;9.168;2023-03-18T01:20:29;96427.66;;;10.55;48.00
55263;BME280;41125;48.752;9.168;2023-03-18T01:21:01;96414.59;;;10.57;47.94
55263;BME280;41125;48.752;9.168;2023-03-18T01:21:32;96421.63;;;10.58;47.91
55263;BME280;41125;48.752;9.168;2023-03-18T01:22:04;96412.66;;;10.58;48.00
55263;BME280;41125;48.752;9.168;2023-03-18T01:22:36;96415.38;;;10.58;47.33
55263;BME280;41125;48.752;9.168;2023-03-18T01:23:10;96412.38;;;10.59;47.70
55263;BME280;41125;48.752;9.168;2023-03-18T01:23:41;96417.78;;;10.59;47.67
55263;BME280;41125;48.752;9.168;2023-03-18T01:24:12;96419.19;;;10.57;47.88
55263;BME280;41125;48.752;9.168;2023-03-18T01:24:44;96416.78;;;10.55;48.04
55263;BME280;41125;48.752;9.168;2023-03-18T01:25:18;96409.75;;;10.54;47.80
55263;BME280;41125;48.752;9.168;2023-03-18T01:25:50;96422.22;;;10.55;47.84
55263;BME280;41125;48.752;9.168;2023-03-18T01:26:21;96414.88;;;10.56;47.96
55263;BME280;41125;48.752;9.168;2023-03-18T01:26:55;96414.09;;;10.55;47.72
55263;BME280;41125;48.752;9.168;2023-03-18T01:27:28;96413.69;;;10.48;48.26
55263;BME280;41125;48.752;9.168;2023-03-18T01:28:02;96415.00;;;10.51;48.00
55263;BME280;41125;48.752;9.168;2023-03-18T01:28:35;96414.19;;;10.50;48.33
55263;BME280;41125;48.752;9.168;2023-03-18T01:29:07;96417.19;;;10.49;47.97
55263;BME280;41125;48.752;9.168;2023-03-18T01:29:40;96422.03;;;10.52;48.34
55263;BME280;41125;48.752;9.168;2023-03-18T01:30:13;96415.78;;;10.51;47.77
55263;BME280;41125;48.752;9.168;2023-03-18T01:30:44;96416.59;;;10.52;48.10
55263;BME280;41125;48.752;9.168;2023-03-18T01:31:15;96417.69;;;10.51;48.10
55263;BME280;41125;48.752;9.168;2023-03-18T01:31:50;96414.69;;;10.52;48.09
55263;BME280;41125;48.752;9.168;2023-03-18T01:32:22;96415.19;;;10.54;47.79
55263;BME280;41125;48.752;9.168;2023-03-18T01:32:54;96408.16;;;10.53;47.70
55263;BME280;41125;48.752;9.168;2023-03-18T01:33:26;96410.87;;;10.53;47.94
55263;BME280;41125;48.752;9.168;2023-03-18T01:34:00;96411.16;;;10.52;47.72
55263;BME280;41125;48.752;9.168;2023-03-18T01:34:32;96404.13;;;10.51;48.05
55263;BME280;41125;48.752;9.168;2023-03-18T01:35:05;96410.37;;;10.51;48.18
55263;BME280;41125;48.752;9.168;2023-03-18T01:35:36;96406.53;;;10.52;48.14
55263;BME280;41125;48.752;9.168;2023-03-18T01:36:09;96409.75;;;10.54;48.34
55263;BME280;41125;48.752;9.168;2023-03-18T01:36:41;96403.72;;;10.57;47.76
55263;BME280;41125;48.752;9.168;2023-03-18T01:37:14;96401.50;;;10.59;47.88
55263;BME280;41125;48.752;9.168;2023-03-18T01:37:45;96401.00;;;10.57;47.84
55263;BME280;41125;48.752;9.168;2023-03-18T01:38:16;96399.41;;;10.56;47.42
55263;BME280;41125;48.752;9.168;2023-03-18T01:38:47;96398.91;;;10.54;47.64
55263;BME280;41125;48.752;9.168;2023-03-18T01:39:28;96402.72;;;10.53;48.09
55263;BME280;41125;48.752;9.168;2023-03-18T01:39:59;96404.94;;;10.51;48.67
55263;BME280;41125;48.752;9.168;2023-03-18T01:40:33;96401.94;;;10.53;48.12
55263;BME280;41125;48.752;9.168;2023-03-18T01:41:05;96404.94;;;10.51;48.02
55263;BME280;41125;48.752;9.168;2023-03-18T01:41:39;96402.72;;;10.53;48.18
55263;BME280;41125;48.752;9.168;2023-03-18T01:42:13;96396.41;;;10.58;47.46
55263;BME280;41125;48.752;9.168;2023-03-18T01:42:55;96404.44;;;10.63;47.71
55263;BME280;41125;48.752;9.168;2023-03-18T01:43:32;96398.69;;;10.64;47.67
55263;BME280;41125;48.752;9.168;2023-03-18T01:44:11;96395.69;;;10.66;47.32
55263;BME280;41125;48.752;9.168;2023-03-18T01:44:43;96392.47;;;10.64;47.50
55263;BME280;41125;48.752;9.168;2023-03-18T01:45:22;96393.88;;;10.61;47.23
55263;BME280;41125;48.752;9.168;2023-03-18T01:45:58;96393.06;;;10.61;47.39
55263;BME280;41125;48.752;9.168;2023-03-18T01:46:38;96395.59;;;10.57;47.81
55263;BME280;41125;48.752;9.168;2023-03-18T01:47:10;96387.44;;;10.57;47.92
55263;BME280;41125;48.752;9.168;2023-03-18T01:47:42;96395.59;;;10.57;47.62
55263;BME280;41125;48.752;9.168;2023-03-18T01:48:17;96395.09;;;10.55;48.00
55263;BME280;41125;48.752;9.168;2023-03-18T01:48:49;96400.50;;;10.55;47.95
55263;BME280;41125;48.752;9.168;2023-03-18T01:49:39;96397.81;;;10.55;47.99
55263;BME280;41125;48.752;9.168;2023-03-18T01:50:18;96398.31;;;10.57;47.89
55263;BME280;41125;48.752;9.168;2023-03-18T01:50:58;96400.91;;;10.62;47.45
55263;BME280;41125;48.752;9.168;2023-03-18T01:51:30;96400.31;;;10.65;47.09
55263;BME280;41125;48.752;9.168;2023-03-18T01:52:11;96401.09;;;10.66;46.88
55263;BME280;41125;48.752;9.168;2023-03-18T01:52:46;96403.31;;;10.64;47.10
55263;BME280;41125;48.752;9.168;2023-03-18T01:53:20;96411.75;;;10.62;47.27
55263;BME280;41125;48.752;9.168;2023-03-18T01:53:53;96409.56;;;10.64;47.47
55263;BME280;41125;48.752;9.168;2023-03-18T01:54:29;96402.72;;;10.67;47.26
55263;BME280;41125;48.752;9.168;2023-03-18T01:55:06;96400.31;;;10.65;47.05
55263;BME280;41125;48.752;9.168;2023-03-18T01:55:43;96404.44;;;10.63;47.24
55263;BME280;41125;48.752;9.168;2023-03-18T01:56:17;96404.72;;;10.61;47.67
55263;BME280;41125;48.752;9.168;2023-03-18T01:56:49;96408.56;;;10.60;47.55
55263;BME280;41125;48.752;9.168;2023-03-18T01:57:22;96412.38;;;10.59;47.67
55263;BME280;41125;48.752;9.168;2023-03-18T01:57:55;96409.66;;;10.59;47.69
55263;BME280;41125;48.752;9.168;2023-03-18T01:58:37;96403.72;;;10.57;47.71
55263;BME280;41125;48.752;9.168;2023-03-18T01:59:11;96411.25;;;10.60;47.56
55263;BME280;41125;48.752;9.168;2023-03-18T01:59:45;96402.50;;;10.63;47.49
55263;BME280;41125;48.752;9.168;2023-03-18T02:00:18;96404.13;;;10.64;47.32
55263;BME280;41125;48.752;9.168;2023-03-18T02:01:10;96404.13;;;10.64;47.58
55263;BME280;41125;48.752;9.168;2023-03-18T02:02:00;96407.44;;;10.61;47.19
55263;BME280;41125;48.752;9.168;2023-03-18T02:02:33;96396.47;;;10.66;47.37
55263;BME280;41125;48.752;9.168;2023-03-18T02:03:05;96396.47;;;10.66;47.18
55263;BME280;41125;48.752;9.168;2023-03-18T02:03:40;96394.06;;;10.65;47.11
55263;BME280;41125;48.752;9.168;2023-03-18T02:04:13;96395.69;;;10.66;47.02
55263;BME280;41125;48.752;9.168;2023-03-18T02:04:52;96398.69;;;10.64;47.71
55263;BME280;41125;48.752;9.168;2023-03-18T02:05:26;96396.78;;;10.65;47.48
55263;BME280;41125;48.752;9.168;2023-03-18T02:05:58;96396.28;;;10.63;47.46
55263;BME280;41125;48.752;9.168;2023-03-18T02:06:29;96395.47;;;10.62;47.82
55263;BME280;41125;48.752;9.168;2023-03-18T02:07:01;96400.91;;;10.62;47.52
55263;BME280;41125;48.752;9.168;2023-03-18T02:07:34;96399.31;;;10.61;47.31
55263;BME280;41125;48.752;9.168;2023-03-18T02:08:06;96399.31;;;10.61;47.58
55263;BME280;41125;48.752;9.168;2023-03-18T02:08:38;96402.31;;;10.60;48.25
55263;BME280;41125;48.752;9.168;2023-03-18T02:09:10;96403.13;;;10.60;47.47
55263;BME280;41125;48.752;9.168;2023-03-18T02:09:42;96396.91;;;10.60;47.95
55263;BME280;41125;48.752;9.168;2023-03-18T02:10:22;96395.47;;;10.62;47.66
55263;BME280;41125;48.752;9.168;2023-03-18T02:10:54;96394.38;;;10.63;47.46
55263;BME280;41125;48.752;9.168;2023-03-18T02:11:25;96401.41;;;10.64;47.66
55263;BME280;41125;48.752;9.168;2023-03-18T02:12:00;96400.59;;;10.64;47.64
55263;BME280;41125;48.752;9.168;2023-03-18T02:12:34;96401.72;;;10.63;47.50
55263;BME280;41125;48.752;9.168;2023-03-18T02:13:08;96392.78;;;10.62;47.79
55263;BME280;41125;48.752;9.168;2023-03-18T02:13:43;96394.69;;;10.62;47.54
55263;BME280;41125;48.752;9.168;2023-03-18T02:14:17;96400.09;;;10.62;47.79
55263;BME280;41125;48.752;9.168;2023-03-18T02:14:51;96399.31;;;10.61;47.37
55263;BME280;41125;48.752;9.168;2023-03-18T02:15:24;96396.91;;;10.60;47.80
55263;BME280;41125;48.752;9.168;2023-03-18T02:16:01;96385.03;;;10.56;47.88
55263;BME280;41125;48.752;9.168;2023-03-18T02:16:42;96392.28;;;10.60;47.66
55263;BME280;41125;48.752;9.168;2023-03-18T02:17:18;96385.75;;;10.61;47.91
55263;BME280;41125;48.752;9.168;2023-03-18T02:18:16;96384.12;;;10.60;47.56
55263;BME280;41125;48.752;9.168;2023-03-18T02:18:55;96380.81;;;10.63;47.49
55263;BME280;41125;48.752;9.168;2023-03-18T02:22:38;96389.75;;;10.64;47.26
55263;BME280;41125;48.752;9.168;2023-03-18T02:23:55;96396.28;;;10.63;47.41
55263;BME280;41125;48.752;9.168;2023-03-18T02:27:24;96405.53;;;10.62;47.49
55263;BME280;41125;48.752;9.168;2023-03-18T02:28:02;96399.09;;;10.58;47.63
55263;BME280;41125;48.752;9.168;2023-03-18T02:28:34;96398.59;;;10.56;47.49
55263;BME280;41125;48.752;9.168;2023-03-18T02:29:07;96395.09;;;10.55;48.01
55263;BME280;41125;48.752;9.168;2023-03-18T02:29:41;96402.13;;;10.56;47.49
55263;BME280;41125;48.752;9.168;2023-03-18T02:30:22;96395.09;;;10.55;47.84
55263;BME280;41125;48.752;9.168;2023-03-18T02:30:57;96391.88;;;10.53;47.58
55263;BME280;41125;48.752;9.168;2023-03-18T02:31:30;96395.69;;;10.52;47.58
55263;BME280;41125;48.752;9.168;2023-03-18T02:32:04;96390.88;;;10.49;47.95
55263;BME280;41125;48.752;9.168;2023-03-18T02:32:36;96391.97;;;10.48;47.85
55263;BME280;41125;48.752;9.168;2023-03-18T02:33:10;96389.56;;;10.47;47.86
55263;BME280;41125;48.752;9.168;2023-03-18T02:33:42;96393.59;;;10.49;47.87
55263;BME280;41125;48.752;9.168;2023-03-18T02:34:15;96393.59;;;10.49;47.89
55263;BME280;41125;48.752;9.168;2023-03-18T02:34:48;96395.50;;;10.49;47.87
55263;BME280;41125;48.752;9.168;2023-03-18T02:35:20;96399.12;;;10.44;48.22
55263;BME280;41125;48.752;9.168;2023-03-18T02:35:56;96402.13;;;10.43;48.40
55263;BME280;41125;48.752;9.168;2023-03-18T02:36:30;96399.25;;;10.39;48.53
55263;BME280;41125;48.752;9.168;2023-03-18T02:37:03;96401.47;;;10.37;48.22
55263;BME280;41125;48.752;9.168;2023-03-18T02:37:38;96406.09;;;10.36;48.22
55263;BME280;41125;48.752;9.168;2023-03-18T02:38:09;96402.56;;;10.36;48.41
55263;BME280;41125;48.752;9.168;2023-03-18T02:38:42;96409.59;;;10.37;48.42
55263;BME280;41125;48.752;9.168;2023-03-18T02:39:14;96404.19;;;10.37;48.35
55263;BME280;41125;48.752;9.168;2023-03-18T02:39:46;96410.91;;;10.39;48.37
55263;BME280;41125;48.752;9.168;2023-03-18T02:40:28;96411.37;;;10.41;48.33
55263;BME280;41125;48.752;9.168;2023-03-18T02:41:00;96406.25;;;10.40;48.16
55263;BME280;41125;48.752;9.168;2023-03-18T02:41:33;96407.84;;;10.41;48.36
55263;BME280;41125;48.752;9.168;2023-03-18T02:42:06;96408.38;;;10.43;48.26
55263;BME280;41125;48.752;9.168;2023-03-18T02:42:37;96403.75;;;10.44;47.96
55263;BME280;41125;48.752;9.168;2023-03-18T02:43:27;96402.44;;;10.41;48.41
55263;BME280;41125;48.752;9.168;2023-03-18T02:43:59;96411.22;;;10.38;48.57
55263;BME280;41125;48.752;9.168;2023-03-18T02:44:31;96408.50;;;10.38;47.96
55263;BME280;41125;48.752;9.168;2023-03-18T02:45:07;96404.78;;;10.34;48.31
55263;BME280;41125;48.752;9.168;2023-03-18T02:47:10;96411.31;;;10.33;48.47
55263;BME280;41125;48.752;9.168;2023-03-18T02:47:46;96415.12;;;10.32;48.60
55263;BME280;41125;48.752;9.168;2023-03-18T02:48:19;96413.22;;;10.32;48.56
55263;BME280;41125;48.752;9.168;2023-03-18T02:48:53;96415.81;;;10.37;48.44
55263;BME280;41125;48.752;9.168;2023-03-18T02:49:26;96412.81;;;10.39;48.60
55263;BME280;41125;48.752;9.168;2023-03-18T02:49:57;96406.25;;;10.40;48.42
55263;BME280;41125;48.752;9.168;2023-03-18T02:50:29;96410.56;;;10.41;48.57
55263;BME280;41125;48.752;9.168;2023-03-18T02:51:01;96405.16;;;10.41;48.11
55263;BME280;41125;48.752;9.168;2023-03-18T02:51:34;96413.91;;;10.38;48.20
55263;BME280;41125;48.752;9.168;2023-03-18T02:52:07;96405.28;;;10.36;48.45
55263;BME280;41125;48.752;9.168;2023-03-18T02:52:39;96414.81;;;10.33;48.47
55263;BME280;41125;48.752;9.168;2023-03-18T02:53:12;96407.00;;;10.32;48.25
55263;BME280;41125;48.752;9.168;2023-03-18T02:53:44;96412.41;;;10.32;48.61
55263;BME280;41125;48.752;9.168;2023-03-18T02:54:21;96409.19;;;10.30;48.91
55263;BME280;41125;48.752;9.168;2023-03-18T02:54:53;96407.59;;;10.29;48.77
55263;BME280;41125;48.752;9.168;2023-03-18T02:55:29;96413.00;;;10.29;48.64
55263;BME280;41125;48.752;9.168;2023-03-18T02:56:00;96411.59;;;10.31;48.96
55263;BME280;41125;48.752;9.168;2023-03-18T02:56:32;96409.19;;;10.30;48.83
55263;BME280;41125;48.752;9.168;2023-03-18T02:57:03;96411.09;;;10.29;49.07
55263;BME280;41125;48.752;9.168;2023-03-18T02:57:35;96415.22;;;10.27;48.71
55263;BME280;41125;48.752;9.168;2023-03-18T02:58:07;96408.19;;;10.26;48.74
55263;BME280;41125;48.752;9.168;2023-03-18T02:58:40;96414.72;;;10.25;48.89
55263;BME280;41125;48.752;9.168;2023-03-18T02:59:12;96405.78;;;10.24;49.09
55263;BME280;41125;48.752;9.168;2023-03-18T02:59:43;96406.88;;;10.23;48.54
55263;BME280;41125;48.752;9.168;2023-03-18T03:00:15;96408.78;;;10.23;49.06
55263;BME280;41125;48.752;9.168;2023-03-18T03:00:48;96407.19;;;10.22;49.04
55263;BME280;41125;48.752;9.168;2023-03-18T03:01:19;96411.00;;;10.21;49.24
55263;BME280;41125;48.752;9.168;2023-03-18T03:01:51;96413.72;;;10.21;48.85
55263;BME280;41125;48.752;9.168;2023-03-18T03:02:23;96413.72;;;10.21;49.31
55263;BME280;41125;48.752;9.168;2023-03-18T03:02:54;96414.81;;;10.20;49.42
55263;BME280;41125;48.752;9.168;2023-03-18T03:03:26;96426.47;;;10.20;49.11
55263;BME280;41125;48.752;9.168;2023-03-18T03:03:59;96419.44;;;10.19;49.12
55263;BME280;41125;48.752;9.168;2023-03-18T03:04:31;96415.09;;;10.18;49.30
55263;BME280;41125;48.752;9.168;2023-03-18T03:05:03;96416.19;;;10.17;49.35
55263;BME280;41125;48.752;9.168;2023-03-18T03:05:35;96408.34;;;10.16;49.66
55263;BME280;41125;48.752;9.168;2023-03-18T03:06:07;96405.66;;;10.16;49.15